Time;durP1;ratioP1;P1;durP2;ratioP2;P2;SDS_P1;SDS_P2;PMS_P1;PMS_P2;Temp;Humidity;BMP_temperature;BMP_pressure;BME280_temperature;BME280_humidity;BME280_pressure;Samples;Min_cycle;Max_cycle;Signal;HPM_P1;HPM_P2
2022/12/18 00:01:06;;;;;;;27.75;17.48;;;16.10;71.50;;;17.78;38.76;100088.25;5025070;28;20064;-71
2022/12/18 00:03:42;;;;;;;26.45;16.02;;;16.10;71.80;;;17.81;38.17;100097.84;5036029;28;20439;-71
2022/12/18 00:06:08;;;;;;;28.45;16.55;;;16.10;71.30;;;17.78;38.64;100109.34;5054838;28;20053;-71
2022/12/18 00:08:35;;;;;;;24.67;14.57;;;16.10;71.80;;;17.76;38.80;100106.09;5019839;28;20401;-72
2022/12/18 00:11:05;;;;;;;29.73;16.48;;;16.10;72.20;;;17.73;38.70;100115.75;5039029;28;20033;-71
2022/12/18 00:13:31;;;;;;;24.75;14.85;;;16.10;71.90;;;17.77;38.46;100108.53;5025812;28;20651;-71
2022/12/18 00:16:21;;;;;;;24.15;14.65;;;16.20;71.60;;;17.77;38.12;100115.97;5059456;28;20081;-72
2022/12/18 00:18:48;;;;;;;29.13;16.20;;;16.10;71.50;;;17.76;38.30;100120.63;5058817;28;20040;-72
2022/12/18 00:21:14;;;;;;;23.63;13.90;;;16.00;71.50;;;17.76;38.54;100136.28;5046894;28;20858;-72
2022/12/18 00:23:42;;;;;;;25.20;15.10;;;16.00;71.90;;;17.79;38.85;100138.44;5058574;28;20044;-72
2022/12/18 00:26:15;;;;;;;24.85;15.80;;;16.00;72.10;;;17.74;38.49;100135.75;5042592;28;20052;-71
2022/12/18 00:28:42;;;;;;;24.02;14.23;;;16.00;72.20;;;17.74;38.38;100133.00;5040364;28;20041;-71
2022/12/18 00:31:10;;;;;;;30.85;15.85;;;16.10;71.60;;;17.73;38.58;100125.88;5039149;28;20044;-71
2022/12/18 00:33:37;;;;;;;23.77;15.13;;;16.00;71.60;;;17.71;38.39;100130.84;5072191;28;20044;-71
2022/12/18 00:36:07;;;;;;;26.20;14.93;;;16.00;71.50;;;17.73;38.36;100139.59;5043923;28;20032;-71
2022/12/18 00:38:34;;;;;;;30.35;16.77;;;15.90;71.80;;;17.72;38.77;100140.72;5037852;28;20142;-71
2022/12/18 00:41:01;;;;;;;25.27;14.80;;;15.90;72.00;;;17.71;38.65;100142.66;5068762;28;20468;-71
2022/12/18 00:43:27;;;;;;;25.40;14.85;;;15.90;72.30;;;17.70;38.45;100143.72;5056329;28;20151;-71
2022/12/18 00:45:53;;;;;;;25.30;15.60;;;16.00;72.00;;;17.72;38.49;100137.97;5055724;28;20048;-71
2022/12/18 00:48:19;;;;;;;22.50;14.25;;;15.90;71.90;;;17.70;38.20;100149.22;5019698;28;20036;-71
2022/12/18 00:50:45;;;;;;;25.70;15.15;;;15.90;71.80;;;17.71;38.47;100155.56;5027698;28;20067;-71
2022/12/18 00:53:11;;;;;;;25.13;15.65;;;15.90;71.70;;;17.73;38.31;100150.56;5039503;28;20044;-72
2022/12/18 00:55:41;;;;;;;25.65;13.70;;;15.90;71.90;;;17.71;38.55;100155.56;5057666;28;20040;-72
2022/12/18 00:58:08;;;;;;;27.48;15.10;;;15.90;72.10;;;17.66;38.78;100161.09;5041442;28;20040;-72
2022/12/18 01:00:34;;;;;;;21.58;13.02;;;15.90;72.10;;;17.69;38.51;100158.56;5056502;28;20052;-72
2022/12/18 01:03:00;;;;;;;27.20;15.27;;;15.90;71.80;;;17.68;38.29;100159.69;5041071;28;20763;-72
2022/12/18 01:05:27;;;;;;;25.65;14.23;;;15.90;71.60;;;17.70;38.25;100160.19;5057851;28;20055;-72
2022/12/18 01:07:54;;;;;;;22.20;14.10;;;15.90;71.40;;;17.76;37.91;100161.00;5000546;28;20037;-72
2022/12/18 01:10:20;;;;;;;23.27;14.38;;;15.90;71.30;;;17.79;38.46;100172.22;5040534;28;20429;-71
2022/12/18 01:12:46;;;;;;;21.00;13.93;;;15.90;72.10;;;17.77;38.68;100179.09;5040116;28;20089;-71
2022/12/18 01:15:14;;;;;;;22.42;14.45;;;15.90;72.00;;;17.74;38.40;100185.16;5051844;28;20487;-71
2022/12/18 01:17:40;;;;;;;21.83;14.63;;;15.90;71.80;;;17.79;38.07;100185.13;5043280;28;20047;-72
2022/12/18 01:20:07;;;;;;;25.00;14.32;;;15.90;71.70;;;17.84;38.07;100179.59;5025910;28;20076;-71
2022/12/18 01:22:33;;;;;;;22.63;13.45;;;15.90;71.60;;;17.83;37.88;100188.13;5056085;28;20043;-71
2022/12/18 01:24:59;;;;;;;25.30;15.57;;;15.90;71.60;;;17.81;38.13;100185.69;5037794;28;20048;-71
2022/12/18 01:27:25;;;;;;;24.52;13.77;;;15.90;71.80;;;17.84;38.20;100176.88;5065838;28;20053;-71
2022/12/18 01:29:51;;;;;;;19.02;13.55;;;15.90;71.80;;;17.86;38.37;100184.78;5060343;28;20036;-71
2022/12/18 01:32:17;;;;;;;23.83;15.18;;;16.00;72.10;;;17.89;38.17;100190.53;5021005;28;20406;-72
2022/12/18 01:34:43;;;;;;;23.13;14.15;;;16.00;71.70;;;17.88;37.81;100199.88;5055354;28;20464;-71
2022/12/18 01:37:10;;;;;;;21.13;12.90;;;16.00;71.60;;;17.91;38.04;100196.56;5070504;28;20518;-71
2022/12/18 01:39:36;;;;;;;19.98;11.60;;;15.90;71.70;;;17.98;37.82;100201.72;5054400;28;20045;-71
2022/12/18 01:42:03;;;;;;;23.02;13.55;;;16.00;71.30;;;17.93;37.98;100202.56;5049154;28;20472;-71
2022/12/18 01:45:06;;;;;;;21.58;12.50;;;16.00;71.50;;;17.98;38.18;100196.22;5040850;28;20441;-72
2022/12/18 01:47:41;;;;;;;24.33;13.57;;;16.00;71.80;;;18.01;37.89;100209.34;5043429;28;20037;-71
2022/12/18 01:50:10;;;;;;;18.60;11.90;;;16.10;72.00;;;18.00;37.76;100203.06;5041231;28;20045;-72
2022/12/18 01:52:38;;;;;;;20.80;13.13;;;16.10;71.50;;;18.07;37.72;100210.97;5040584;28;20114;-71
2022/12/18 01:55:05;;;;;;;20.50;12.85;;;16.10;71.50;;;18.13;37.47;100211.72;5048065;28;20782;-71
2022/12/18 01:57:31;;;;;;;17.67;11.35;;;16.10;71.30;;;18.07;37.80;100215.66;5029220;28;20036;-71
2022/12/18 02:00:04;;;;;;;19.25;12.68;;;16.20;71.50;;;18.10;37.69;100212.31;5040346;28;20033;-71
2022/12/18 02:02:30;;;;;;;19.80;11.57;;;16.20;71.60;;;18.13;38.02;100214.47;5041145;28;20474;-71
2022/12/18 02:04:56;;;;;;;21.58;12.15;;;16.10;71.90;;;18.14;37.77;100216.09;5035345;28;20056;-71
2022/12/18 02:07:38;;;;;;;19.80;12.20;;;16.20;71.40;;;18.21;37.80;100227.56;5056924;28;20042;-71
2022/12/18 02:10:36;;;;;;;23.98;13.07;;;16.30;71.30;;;18.25;37.50;100222.34;5058686;28;20044;-71
2022/12/18 02:13:25;;;;;;;18.05;12.00;;;16.20;71.20;;;18.27;37.71;100237.41;5045961;28;20067;-71
2022/12/18 02:16:00;;;;;;;21.92;12.80;;;16.30;71.20;;;18.22;37.87;100243.78;5055755;28;20059;-71
2022/12/18 02:18:38;;;;;;;16.83;11.63;;;16.30;71.40;;;18.23;37.83;100236.34;5060153;28;20075;-71
2022/12/18 02:21:48;;;;;;;18.90;12.27;;;16.20;71.60;;;18.29;37.74;100243.41;5042233;28;20086;-71
2022/12/18 02:24:32;;;;;;;20.95;12.13;;;16.30;71.30;;;18.32;37.42;100245.59;5058682;28;20070;-71
2022/12/18 02:27:08;;;;;;;21.55;12.60;;;16.30;71.30;;;18.26;37.63;100251.44;5056162;28;20052;-71
2022/12/18 02:29:43;;;;;;;20.85;13.15;;;16.40;71.30;;;18.32;37.80;100259.34;5030021;28;20045;-71
2022/12/18 02:32:14;;;;;;;19.98;11.88;;;16.40;71.00;;;18.36;37.70;100268.63;5025388;28;20036;-71
2022/12/18 02:34:40;;;;;;;16.90;11.77;;;16.40;71.40;;;18.40;37.84;100272.44;5040216;28;20433;-71
2022/12/18 02:37:09;;;;;;;19.95;11.27;;;16.40;71.50;;;18.32;37.65;100267.59;5010622;28;20476;-71
2022/12/18 02:39:37;;;;;;;18.08;11.82;;;16.40;71.10;;;18.36;37.55;100267.81;5002050;28;20079;-71
2022/12/18 02:42:07;;;;;;;14.68;9.82;;;16.50;71.10;;;18.37;37.71;100259.28;5029035;28;20468;-71
2022/12/18 02:44:35;;;;;;;20.50;12.18;;;16.40;71.10;;;18.40;37.42;100258.72;5038843;28;20417;-71
2022/12/18 02:47:01;;;;;;;19.23;12.43;;;16.40;71.00;;;18.42;37.38;100272.97;5040428;28;20098;-72
2022/12/18 02:49:46;;;;;;;18.58;12.18;;;16.30;71.40;;;18.46;37.68;100284.19;5031988;28;20045;-72
2022/12/18 02:52:34;;;;;;;20.98;12.35;;;16.40;71.70;;;18.40;37.39;100282.63;5070798;28;20089;-72
2022/12/18 02:55:31;;;;;;;19.35;11.40;;;16.40;71.30;;;18.42;37.27;100278.47;5060902;28;20059;-72
2022/12/18 02:58:07;;;;;;;19.40;12.38;;;16.40;71.10;;;18.44;37.54;100281.75;5057342;28;20040;-72
2022/12/18 03:00:57;;;;;;;16.20;11.95;;;16.40;71.10;;;18.43;37.34;100285.59;5061706;28;20041;-72
2022/12/18 03:03:48;;;;;;;18.80;12.25;;;16.40;71.10;;;18.43;37.53;100293.84;5026894;28;20051;-72
2022/12/18 03:06:33;;;;;;;19.90;11.80;;;16.40;71.40;;;18.44;37.61;100295.50;4994985;28;20059;-72
2022/12/18 03:09:03;;;;;;;16.38;10.45;;;16.40;71.80;;;18.43;37.43;100301.25;4991295;28;20042;-72
2022/12/18 03:14:16;;;;;;;18.15;11.73;;;16.40;71.10;;;18.49;37.23;100310.28;5024719;28;20477;-71
2022/12/18 03:16:43;;;;;;;16.65;11.50;;;16.40;71.10;;;18.51;37.40;100305.31;5003819;28;20071;-71
2022/12/18 03:19:12;;;;;;;20.23;12.02;;;16.40;71.10;;;18.49;37.30;100302.84;5000784;28;20055;-71
2022/12/18 03:21:48;;;;;;;17.58;11.25;;;16.50;71.10;;;18.48;37.67;100303.97;5017733;28;20041;-71
2022/12/18 03:24:15;;;;;;;16.33;9.93;;;16.50;71.40;;;18.49;37.58;100305.59;5001347;28;20090;-72
2022/12/18 03:26:45;;;;;;;20.17;11.57;;;16.40;71.20;;;18.54;37.54;100311.03;5000041;28;20089;-72
2022/12/18 03:29:25;;;;;;;15.30;10.55;;;16.40;71.20;;;18.53;37.29;100314.91;4985642;28;20045;-71
2022/12/18 03:31:58;;;;;;;17.35;10.32;;;16.50;71.20;;;18.43;37.44;100307.56;5019745;28;20040;-72
2022/12/18 03:34:30;;;;;;;18.45;11.82;;;16.50;71.00;;;18.51;37.47;100319.88;5001115;28;20128;-72
2022/12/18 03:36:56;;;;;;;16.25;10.55;;;16.40;71.20;;;18.50;37.75;100321.00;5000270;28;20044;-71
2022/12/18 03:39:23;;;;;;;15.38;9.57;;;16.40;71.40;;;18.55;37.38;100322.88;5000783;28;20541;-72
2022/12/18 03:42:05;;;;;;;15.88;10.75;;;16.40;71.50;;;18.52;37.39;100332.50;5015635;28;20099;-70
2022/12/18 03:44:49;;;;;;;17.67;11.40;;;16.40;71.30;;;18.44;37.42;100327.63;5017147;28;20044;-70
2022/12/18 03:47:32;;;;;;;14.82;10.65;;;16.50;71.20;;;18.50;37.07;100328.41;5011166;28;20048;-70
2022/12/18 03:50:16;;;;;;;17.40;10.40;;;16.50;70.90;;;18.47;37.52;100324.31;5019998;28;20045;-71
2022/12/18 03:52:54;;;;;;;18.15;11.02;;;16.50;70.90;;;18.49;37.18;100326.75;5019369;28;20041;-71
2022/12/18 03:55:21;;;;;;;16.27;10.30;;;16.40;70.80;;;18.44;37.09;100331.22;5017247;28;20041;-71
2022/12/18 03:57:48;;;;;;;17.92;11.27;;;16.40;70.60;;;18.43;37.04;100324.06;5017139;28;20049;-71
2022/12/18 04:00:16;;;;;;;14.07;9.20;;;16.50;70.60;;;18.44;36.83;100330.38;5013435;28;20028;-71
2022/12/18 04:02:51;;;;;;;13.75;9.98;;;16.40;70.30;;;18.42;37.04;100347.16;5000027;28;20403;-71
2022/12/18 04:05:19;;;;;;;15.07;10.50;;;16.50;70.60;;;18.43;37.20;100345.22;5007996;28;20056;-70
2022/12/18 04:07:46;;;;;;;17.58;10.68;;;16.40;70.80;;;18.43;37.15;100350.72;5038070;28;20455;-71
2022/12/18 04:10:12;;;;;;;13.88;9.77;;;16.40;70.80;;;18.39;36.78;100350.50;5022994;28;20040;-71
2022/12/18 04:12:39;;;;;;;16.13;10.60;;;16.50;70.30;;;18.38;37.02;100354.31;5019666;28;20479;-71
2022/12/18 04:15:06;;;;;;;14.75;9.93;;;16.50;70.30;;;18.39;36.69;100363.38;5053473;28;20041;-71
2022/12/18 04:17:32;;;;;;;13.82;10.00;;;16.40;69.90;;;18.40;36.71;100365.84;5023272;28;20115;-71
2022/12/18 04:19:58;;;;;;;19.30;11.93;;;16.50;69.80;;;18.39;36.83;100364.22;5043496;28;20036;-71
2022/12/18 04:22:24;;;;;;;16.63;10.60;;;16.40;70.30;;;18.44;37.08;100371.56;5021513;28;20055;-71
2022/12/18 04:24:50;;;;;;;13.85;9.90;;;16.40;70.50;;;18.39;36.74;100364.22;5063322;28;20045;-70
2022/12/18 04:27:16;;;;;;;17.13;10.20;;;16.40;70.00;;;18.44;36.69;100368.84;5071403;28;20069;-70
2022/12/18 04:29:42;;;;;;;16.13;10.88;;;16.30;69.90;;;18.40;36.43;100368.59;5034397;28;20123;-70
2022/12/18 04:32:08;;;;;;;12.60;10.10;;;16.30;70.00;;;18.37;36.30;100380.16;5057004;28;20037;-70
2022/12/18 04:34:34;;;;;;;18.60;10.70;;;16.30;69.80;;;18.34;36.83;100375.25;5038164;28;20041;-70
2022/12/18 04:37:01;;;;;;;14.15;9.25;;;16.40;69.80;;;18.38;36.80;100379.06;5039043;28;20097;-70
2022/12/18 04:39:26;;;;;;;14.10;9.73;;;16.40;70.10;;;18.41;36.90;100386.72;5053074;28;20044;-70
2022/12/18 04:41:53;;;;;;;17.13;11.48;;;16.30;70.40;;;18.40;36.50;100385.09;5040571;28;20460;-71
2022/12/18 04:44:19;;;;;;;16.27;10.32;;;16.30;70.00;;;18.34;36.58;100388.16;5070912;28;20037;-71
2022/12/18 04:46:45;;;;;;;17.40;11.32;;;16.30;69.90;;;18.30;36.55;100398.91;5055986;28;20055;-71
2022/12/18 04:49:11;;;;;;;15.90;10.38;;;16.40;69.50;;;18.35;36.18;100403.53;5040056;28;20115;-71
2022/12/18 04:51:37;;;;;;;16.20;11.02;;;16.40;68.80;;;18.37;36.58;100406.81;5057623;28;20044;-71
2022/12/18 04:54:03;;;;;;;13.10;10.05;;;16.40;69.70;;;18.34;36.73;100412.88;5036137;28;20090;-71
2022/12/18 04:56:30;;;;;;;13.52;9.90;;;16.30;69.80;;;18.36;36.62;100407.91;5035613;28;20045;-71
2022/12/18 04:58:57;;;;;;;17.95;11.57;;;16.30;69.90;;;18.33;36.47;100412.06;5052430;28;20044;-71
2022/12/18 05:01:23;;;;;;;15.45;10.43;;;16.30;69.70;;;18.31;36.39;100417.00;5038889;28;20581;-70
2022/12/18 05:03:50;;;;;;;19.42;11.60;;;16.30;69.40;;;18.31;36.18;100414.25;5053449;28;20040;-71
2022/12/18 05:06:16;;;;;;;16.20;10.45;;;16.30;69.10;;;18.30;36.25;100422.81;5068338;28;20075;-71
2022/12/18 05:08:42;;;;;;;15.20;9.90;;;16.30;68.90;;;18.30;36.48;100426.38;5069798;28;20036;-71
2022/12/18 05:11:11;;;;;;;17.25;10.25;;;16.20;69.50;;;18.34;36.53;100421.97;5050143;28;20037;-71
2022/12/18 05:13:37;;;;;;;16.00;10.10;;;16.20;69.80;;;18.35;36.36;100414.53;5013788;28;20067;-71
2022/12/18 05:16:04;;;;;;;16.05;11.27;;;16.30;69.60;;;18.34;36.05;100418.38;5027242;28;20036;-71
2022/12/18 05:18:30;;;;;;;16.33;10.68;;;16.20;69.10;;;18.28;36.12;100420.34;5055332;28;20050;-71
2022/12/18 05:20:57;;;;;;;14.57;10.18;;;16.30;69.10;;;18.29;36.01;100421.16;5002371;28;20083;-71
2022/12/18 05:23:23;;;;;;;18.48;12.15;;;16.30;68.70;;;18.26;36.51;100422.53;5052151;28;20086;-71
2022/12/18 05:25:53;;;;;;;13.85;9.50;;;16.30;69.00;;;18.33;36.32;100425.78;5058237;28;20387;-71
2022/12/18 05:28:20;;;;;;;13.95;10.00;;;16.30;69.50;;;18.32;36.47;100424.16;5033592;28;20035;-71
2022/12/18 05:30:58;;;;;;;19.05;10.60;;;16.30;69.50;;;18.30;36.68;100425.56;5031624;28;20041;-71
2022/12/18 05:33:25;;;;;;;16.58;9.82;;;16.30;68.80;;;18.25;36.19;100428.34;5049747;28;20400;-71
2022/12/18 05:35:56;;;;;;;19.15;10.25;;;16.40;68.80;;;18.23;36.29;100436.84;5037182;28;20065;-70
2022/12/18 05:38:22;;;;;;;15.13;9.90;;;16.40;68.80;;;18.24;36.16;100443.97;5053858;28;20067;-70
2022/12/18 05:40:49;;;;;;;17.63;10.57;;;16.40;68.60;;;18.26;36.06;100450.00;5016713;28;20055;-70
2022/12/18 05:43:16;;;;;;;17.65;10.07;;;16.30;68.70;;;18.34;36.19;100454.91;5015645;28;20048;-71
2022/12/18 05:45:42;;;;;;;13.10;9.60;;;16.30;69.10;;;18.30;36.25;100450.28;5053420;28;20045;-71
2022/12/18 05:48:08;;;;;;;17.92;10.70;;;16.30;69.10;;;18.31;36.05;100455.47;5016193;28;20105;-71
2022/12/18 05:50:39;;;;;;;18.58;10.40;;;16.30;68.70;;;18.34;35.93;100449.44;5033430;28;20036;-70
2022/12/18 05:53:05;;;;;;;15.20;9.90;;;16.30;68.70;;;18.33;35.94;100453.25;5042869;28;20045;-70
2022/12/18 05:55:35;;;;;;;15.63;10.45;;;16.30;68.70;;;18.37;36.03;100453.53;5038280;28;20123;-71
2022/12/18 05:58:02;;;;;;;17.95;11.13;;;16.30;68.70;;;18.36;35.59;100462.84;5024141;28;20041;-71
2022/12/18 06:00:29;;;;;;;15.50;10.77;;;16.30;68.40;;;18.35;35.84;100466.72;5041819;28;20033;-71
2022/12/18 06:02:55;;;;;;;17.45;10.60;;;16.40;68.50;;;18.31;36.20;100474.69;5055176;28;20357;-71
2022/12/18 06:05:21;;;;;;;16.95;10.25;;;16.30;68.70;;;18.33;36.44;100471.69;5050405;28;20063;-71
2022/12/18 06:07:47;;;;;;;14.15;9.85;;;16.30;69.00;;;18.40;36.08;100470.25;5033309;28;20044;-71
2022/12/18 06:10:13;;;;;;;14.93;9.48;;;16.30;68.70;;;18.39;35.92;100470.53;5049437;28;20045;-71
2022/12/18 06:12:39;;;;;;;14.85;10.13;;;16.30;68.70;;;18.40;35.95;100484.00;5051483;28;20043;-71
2022/12/18 06:15:06;;;;;;;14.25;9.73;;;16.30;68.70;;;18.42;35.81;100484.53;5053993;28;20044;-71
2022/12/18 06:17:33;;;;;;;24.67;11.15;;;16.30;68.70;;;18.38;35.91;100491.69;5052449;28;20435;-71
2022/12/18 06:19:59;;;;;;;16.50;10.27;;;16.40;68.70;;;18.41;36.10;100491.13;5020314;28;20047;-71
2022/12/18 06:22:26;;;;;;;18.30;10.23;;;16.30;68.90;;;18.37;36.39;100495.56;5032151;28;20076;-71
2022/12/18 06:24:52;;;;;;;20.02;12.30;;;16.30;69.20;;;18.42;36.09;100487.28;5073404;28;20070;-71
2022/12/18 06:27:18;;;;;;;16.45;10.30;;;16.40;68.80;;;18.43;36.19;100496.34;5054491;28;20044;-71
2022/12/18 06:29:44;;;;;;;17.40;10.98;;;16.40;68.90;;;18.42;36.02;100490.03;5063638;28;20106;-71
2022/12/18 06:32:10;;;;;;;15.98;10.60;;;16.40;68.80;;;18.48;35.91;100500.97;5053060;28;20044;-71
2022/12/18 06:34:40;;;;;;;14.57;9.80;;;16.30;68.80;;;18.42;35.94;100497.47;5032256;28;20041;-71
2022/12/18 06:37:06;;;;;;;14.13;8.77;;;16.30;68.80;;;18.41;36.31;100504.03;5034641;28;20044;-70
2022/12/18 06:39:32;;;;;;;14.38;9.80;;;16.40;69.60;;;18.44;36.29;100507.06;5051266;28;20193;-71
2022/12/18 06:41:58;;;;;;;16.92;9.30;;;16.30;69.40;;;18.46;35.90;100509.50;5054424;28;20916;-71
2022/12/18 06:44:24;;;;;;;14.40;9.18;;;16.30;69.00;;;18.46;36.14;100527.91;5056409;28;20040;-71
2022/12/18 06:46:50;;;;;;;15.82;10.68;;;16.30;69.10;;;18.46;36.00;100530.66;5038543;28;20041;-72
2022/12/18 06:49:16;;;;;;;16.15;10.80;;;16.30;68.90;;;18.47;36.11;100527.66;5056338;28;20075;-71
2022/12/18 06:51:42;;;;;;;16.38;9.73;;;16.30;68.80;;;18.44;36.21;100534.53;5052668;28;20642;-71
2022/12/18 06:54:08;;;;;;;14.55;9.20;;;16.20;70.20;;;18.45;36.39;100532.59;5035274;28;20036;-71
2022/12/18 06:56:34;;;;;;;16.50;9.27;;;16.20;69.70;;;18.44;36.30;100539.19;5045540;28;20123;-71
2022/12/18 06:59:00;;;;;;;15.40;9.55;;;16.30;69.80;;;18.44;36.34;100545.53;5040823;28;20086;-70
2022/12/18 07:01:26;;;;;;;14.00;9.48;;;16.30;69.60;;;18.46;36.15;100547.16;5052796;28;20041;-71
2022/12/18 07:03:54;;;;;;;13.85;9.68;;;16.20;69.50;;;18.47;36.00;100540.53;5057190;28;20048;-71
2022/12/18 07:06:22;;;;;;;16.08;9.60;;;16.20;69.30;;;18.43;35.93;100549.34;5068167;28;20098;-71
2022/12/18 07:08:49;;;;;;;17.70;10.57;;;16.20;69.70;;;18.50;36.30;100551.00;5035950;28;20041;-71
2022/12/18 07:11:15;;;;;;;16.42;9.70;;;16.20;70.10;;;18.50;36.20;100556.47;5019480;28;20044;-71
2022/12/18 07:13:41;;;;;;;14.27;9.52;;;16.30;70.20;;;18.51;36.17;100558.13;5035730;28;20041;-71
2022/12/18 07:16:16;;;;;;;17.75;10.32;;;16.30;69.90;;;18.53;35.98;100553.97;5047402;28;20381;-71
2022/12/18 07:18:42;;;;;;;18.90;10.25;;;16.30;69.80;;;18.53;36.02;100564.16;5048057;28;20037;-71
2022/12/18 07:21:15;;;;;;;14.77;10.60;;;16.30;69.50;;;18.56;36.13;100564.41;5051143;28;20691;-72
2022/12/18 07:23:42;;;;;;;16.02;10.70;;;16.30;69.30;;;18.52;36.12;100568.00;5038423;28;20040;-72
2022/12/18 07:26:10;;;;;;;12.35;9.00;;;16.30;69.70;;;18.53;36.24;100580.63;5039209;28;20109;-73
2022/12/18 07:28:37;;;;;;;13.90;8.88;;;16.30;69.90;;;18.57;36.15;100582.53;5053793;28;20048;-73
2022/12/18 07:31:08;;;;;;;14.63;10.27;;;16.30;70.00;;;18.55;36.23;100583.94;5035249;28;20135;-72
2022/12/18 07:33:34;;;;;;;15.30;10.13;;;16.30;69.80;;;18.58;36.06;100594.34;5039606;28;20040;-72
2022/12/18 07:36:02;;;;;;;15.63;9.88;;;16.30;69.70;;;18.49;36.09;100591.34;5016478;28;20124;-72
2022/12/18 07:38:29;;;;;;;16.20;10.30;;;16.30;69.40;;;18.46;35.47;100591.94;5052867;28;20074;-72
2022/12/18 07:41:00;;;;;;;18.15;11.82;;;16.20;68.10;;;18.38;35.18;100596.09;5057170;28;20416;-73
2022/12/18 07:43:26;;;;;;;16.95;10.88;;;16.20;68.00;;;18.35;35.25;100601.34;5038561;28;20510;-72
2022/12/18 07:45:52;;;;;;;19.10;10.93;;;16.20;67.40;;;18.33;34.79;100601.59;5052222;28;20040;-72
2022/12/18 07:48:18;;;;;;;15.95;11.10;;;16.10;67.00;;;18.34;34.43;100606.00;5035289;28;20068;-72
2022/12/18 07:50:44;;;;;;;20.90;11.55;;;16.10;66.40;;;18.30;34.16;100610.41;5031351;28;20041;-72
2022/12/18 07:53:11;;;;;;;22.25;10.98;;;16.10;66.20;;;18.33;33.95;100612.59;5048237;28;20047;-72
2022/12/18 07:55:37;;;;;;;20.50;12.20;;;16.00;65.60;;;18.32;34.07;100621.94;5051059;28;20045;-72
2022/12/18 07:58:04;;;;;;;15.55;10.00;;;16.00;65.90;;;18.36;34.31;100613.97;5048935;28;20043;-72
2022/12/18 08:00:30;;;;;;;17.65;11.20;;;16.10;66.50;;;18.44;34.44;100611.47;5019035;28;20052;-72
2022/12/18 08:02:57;;;;;;;16.50;10.98;;;16.10;66.70;;;18.47;34.53;100614.72;5014909;28;20529;-72
2022/12/18 08:05:23;;;;;;;17.92;10.10;;;16.10;66.60;;;18.46;34.50;100613.91;5047333;28;20052;-73
2022/12/18 08:07:49;;;;;;;22.95;11.43;;;16.20;66.70;;;18.43;34.60;100615.28;5034055;28;20476;-73
2022/12/18 08:10:15;;;;;;;19.33;11.45;;;16.20;66.70;;;18.49;34.49;100613.34;5035037;28;20086;-73
2022/12/18 08:12:41;;;;;;;15.30;10.13;;;16.20;67.00;;;18.44;34.79;100605.97;5035055;28;20048;-73
2022/12/18 08:15:08;;;;;;;23.20;10.30;;;16.20;67.70;;;18.46;35.12;100610.34;5025635;28;20118;-73
2022/12/18 08:17:34;;;;;;;20.10;10.88;;;16.20;67.70;;;18.50;34.81;100614.19;5023690;28;20044;-72
2022/12/18 08:20:00;;;;;;;26.48;12.95;;;16.30;67.90;;;18.52;35.14;100617.44;5030168;28;20094;-72
2022/12/18 08:22:26;;;;;;;18.63;10.85;;;16.30;67.60;;;18.53;34.78;100624.59;5036107;28;20610;-72
2022/12/18 08:24:52;;;;;;;18.42;11.38;;;16.30;67.60;;;18.52;34.81;100622.94;5035409;28;20439;-72
2022/12/18 08:27:18;;;;;;;17.15;10.50;;;16.30;67.50;;;18.59;35.14;100628.97;5047958;28;20408;-72
2022/12/18 08:29:44;;;;;;;18.67;11.60;;;16.20;67.70;;;18.60;35.26;100625.13;5047874;28;20045;-72
2022/12/18 08:32:11;;;;;;;17.92;10.52;;;16.20;68.20;;;18.59;35.19;100628.97;5064944;28;20041;-72
2022/12/18 08:34:37;;;;;;;18.15;10.93;;;16.20;68.60;;;18.58;35.11;100622.66;5046383;28;20044;-72
2022/12/18 08:37:03;;;;;;;21.33;12.32;;;16.20;68.40;;;18.60;35.06;100628.69;5044483;28;20048;-72
2022/12/18 08:39:29;;;;;;;16.48;10.25;;;16.30;68.50;;;18.62;35.20;100633.88;5049904;28;20053;-72
2022/12/18 08:44:41;;;;;;;18.27;11.20;;;16.30;68.00;;;18.63;35.50;100638.31;5064672;28;20055;-71
2022/12/18 08:47:08;;;;;;;16.05;10.85;;;16.30;68.70;;;18.66;35.46;100638.53;5065261;28;20130;-71
2022/12/18 08:49:34;;;;;;;15.63;10.45;;;16.30;68.80;;;18.67;35.43;100642.09;5046961;28;20045;-71
2022/12/18 08:52:02;;;;;;;17.58;11.50;;;16.30;69.80;;;18.65;35.22;100649.84;5043328;28;20412;-71
2022/12/18 08:54:28;;;;;;;17.25;11.20;;;16.40;68.60;;;18.66;35.35;100649.53;5048786;28;20334;-72
2022/12/18 08:56:54;;;;;;;17.08;10.02;;;16.40;68.60;;;18.62;35.38;100651.22;5053200;28;20048;-72
2022/12/18 08:59:20;;;;;;;20.10;10.73;;;16.30;68.60;;;18.61;35.44;100657.00;5040050;28;20114;-72
2022/12/18 09:01:46;;;;;;;19.48;12.00;;;16.30;69.50;;;18.69;35.48;100661.06;5036415;28;20439;-71
2022/12/18 09:04:13;;;;;;;16.40;10.15;;;16.30;68.70;;;18.70;35.79;100662.72;5033631;28;20139;-71
2022/12/18 09:06:40;;;;;;;19.63;11.85;;;16.40;69.30;;;18.70;35.61;100662.72;5050627;28;20068;-71
2022/12/18 09:09:06;;;;;;;19.60;11.20;;;16.30;68.80;;;18.67;35.51;100664.09;5036429;28;20059;-71
2022/12/18 09:11:32;;;;;;;18.50;11.38;;;16.30;68.70;;;18.70;35.42;100669.06;5037333;28;20098;-71
2022/12/18 09:13:59;;;;;;;19.38;12.50;;;16.40;68.80;;;18.70;35.37;100669.06;5017900;28;20123;-71
2022/12/18 09:16:29;;;;;;;26.35;12.07;;;16.40;68.80;;;18.71;35.59;100665.19;5049830;28;20055;-71
2022/12/18 09:18:59;;;;;;;19.83;11.75;;;16.40;68.80;;;18.68;35.74;100671.25;5033656;28;20063;-71
2022/12/18 09:21:27;;;;;;;17.10;9.88;;;16.40;69.00;;;18.67;36.00;100666.84;5049106;28;20051;-71
2022/12/18 09:23:54;;;;;;;17.27;9.95;;;16.50;69.10;;;18.71;35.56;100665.19;5018413;28;20600;-71
2022/12/18 09:26:23;;;;;;;23.52;12.73;;;16.60;68.80;;;18.70;35.59;100674.56;5067211;28;20051;-71
2022/12/18 09:28:50;;;;;;;19.55;10.90;;;16.50;68.80;;;18.68;35.51;100662.19;5036741;28;20785;-71
2022/12/18 09:31:17;;;;;;;19.38;10.32;;;16.40;68.80;;;18.67;35.57;100669.59;5038301;28;20435;-71
2022/12/18 09:33:44;;;;;;;19.30;11.02;;;16.40;68.80;;;18.72;35.73;100674.25;5014863;28;20784;-71
2022/12/18 09:36:14;;;;;;;19.80;12.77;;;16.30;69.20;;;18.76;35.83;100667.94;5047323;28;20040;-71
2022/12/18 09:38:40;;;;;;;19.08;10.48;;;16.40;69.40;;;18.75;35.91;100677.31;4999524;28;20044;-71
2022/12/18 09:41:45;;;;;;;19.90;9.82;;;16.50;69.50;;;18.77;35.58;100668.75;5016575;28;20041;-71
2022/12/18 09:44:14;;;;;;;16.67;11.63;;;16.50;69.80;;;18.74;35.65;100678.38;5046632;28;20071;-72
2022/12/18 09:47:24;;;;;;;19.73;11.57;;;16.60;68.80;;;18.75;35.53;100677.31;5066128;28;20048;-72
2022/12/18 09:49:58;;;;;;;16.98;10.57;;;16.50;68.70;;;18.77;35.63;100672.31;5028811;28;20061;-72
2022/12/18 09:52:37;;;;;;;17.15;10.27;;;16.50;69.00;;;18.83;35.71;100679.47;5034144;28;20036;-72
2022/12/18 09:55:18;;;;;;;17.05;11.57;;;16.50;69.20;;;18.83;35.57;100671.22;5018981;28;20689;-72
2022/12/18 09:58:18;;;;;;;17.73;11.10;;;16.70;69.00;;;18.81;35.49;100683.59;5052038;28;20040;-72
2022/12/18 10:00:45;;;;;;;16.70;10.73;;;16.60;69.00;;;18.78;35.56;100676.75;5021228;28;20131;-73
2022/12/18 10:03:13;;;;;;;19.25;11.43;;;16.60;68.90;;;18.76;35.61;100678.94;5002124;28;20490;-73
2022/12/18 10:05:47;;;;;;;17.85;10.93;;;16.60;68.70;;;18.81;35.89;100689.91;5016513;28;20060;-73
2022/12/18 10:08:22;;;;;;;24.58;11.48;;;16.60;69.00;;;18.84;35.82;100689.34;5048677;28;20036;-73
2022/12/18 10:11:01;;;;;;;18.02;11.13;;;16.60;69.50;;;18.82;35.77;100687.97;5013626;28;20523;-72
2022/12/18 10:13:41;;;;;;;24.30;11.57;;;16.60;69.40;;;18.82;35.75;100693.47;5024941;28;20093;-75
2022/12/18 10:16:45;;;;;;;16.65;10.32;;;16.60;69.00;;;18.73;35.80;100692.41;5047091;28;20048;-73